sensor_id;sensor_type;location;lat;lon;timestamp;P1;durP1;ratioP1;P2;durP2;ratioP2
57389;SDS011;43217;52.694;6.214;2024-02-21T00:00:17;17.77;;;10.25;;
57389;SDS011;43217;52.694;6.214;2024-02-21T00:02:43;17.77;;;9.77;;
57389;SDS011;43217;52.694;6.214;2024-02-21T00:05:09;15.68;;;9.45;;
57389;SDS011;43217;52.694;6.214;2024-02-21T00:07:34;19.50;;;9.15;;
57389;SDS011;43217;52.694;6.214;2024-02-21T00:10:00;20.00;;;9.95;;
57389;SDS011;43217;52.694;6.214;2024-02-21T00:12:25;17.55;;;8.38;;
57389;SDS011;43217;52.694;6.214;2024-02-21T00:14:51;17.00;;;8.23;;
57389;SDS011;43217;52.694;6.214;2024-02-21T00:17:16;14.48;;;7.80;;
57389;SDS011;43217;52.694;6.214;2024-02-21T00:19:42;14.77;;;6.68;;
57389;SDS011;43217;52.694;6.214;2024-02-21T00:22:08;17.65;;;7.78;;
57389;SDS011;43217;52.694;6.214;2024-02-21T00:24:33;14.85;;;7.07;;
57389;SDS011;43217;52.694;6.214;2024-02-21T00:26:59;14.15;;;6.20;;
57389;SDS011;43217;52.694;6.214;2024-02-21T00:29:24;18.67;;;7.78;;
57389;SDS011;43217;52.694;6.214;2024-02-21T00:31:50;15.32;;;6.75;;
57389;SDS011;43217;52.694;6.214;2024-02-21T00:34:16;15.80;;;6.60;;
57389;SDS011;43217;52.694;6.214;2024-02-21T00:36:42;15.00;;;7.03;;
57389;SDS011;43217;52.694;6.214;2024-02-21T00:39:07;16.85;;;7.05;;
57389;SDS011;43217;52.694;6.214;2024-02-21T00:41:33;14.80;;;7.18;;
57389;SDS011;43217;52.694;6.214;2024-02-21T00:43:58;13.82;;;7.03;;
57389;SDS011;43217;52.694;6.214;2024-02-21T00:46:24;18.88;;;7.88;;
57389;SDS011;43217;52.694;6.214;2024-02-21T00:48:49;18.35;;;7.40;;
57389;SDS011;43217;52.694;6.214;2024-02-21T00:51:15;16.83;;;7.03;;
57389;SDS011;43217;52.694;6.214;2024-02-21T00:53:42;19.33;;;7.10;;
57389;SDS011;43217;52.694;6.214;2024-02-21T00:56:07;16.98;;;7.30;;
57389;SDS011;43217;52.694;6.214;2024-02-21T00:58:33;17.65;;;7.20;;
57389;SDS011;43217;52.694;6.214;2024-02-21T01:01:00;18.85;;;7.38;;
57389;SDS011;43217;52.694;6.214;2024-02-21T01:03:26;19.52;;;6.82;;
57389;SDS011;43217;52.694;6.214;2024-02-21T01:05:51;18.00;;;6.97;;
57389;SDS011;43217;52.694;6.214;2024-02-21T01:08:17;17.52;;;7.90;;
57389;SDS011;43217;52.694;6.214;2024-02-21T01:10:43;19.08;;;7.63;;
57389;SDS011;43217;52.694;6.214;2024-02-21T01:13:08;19.25;;;7.72;;
57389;SDS011;43217;52.694;6.214;2024-02-21T01:15:34;17.58;;;7.30;;
57389;SDS011;43217;52.694;6.214;2024-02-21T01:18:00;17.90;;;7.35;;
57389;SDS011;43217;52.694;6.214;2024-02-21T01:20:26;17.75;;;7.85;;
57389;SDS011;43217;52.694;6.214;2024-02-21T01:22:52;16.75;;;7.03;;
57389;SDS011;43217;52.694;6.214;2024-02-21T01:25:17;19.17;;;8.50;;
57389;SDS011;43217;52.694;6.214;2024-02-21T01:27:43;20.85;;;8.15;;
57389;SDS011;43217;52.694;6.214;2024-02-21T01:30:09;23.80;;;9.68;;
57389;SDS011;43217;52.694;6.214;2024-02-21T01:32:36;17.23;;;8.23;;
57389;SDS011;43217;52.694;6.214;2024-02-21T01:35:01;21.33;;;8.95;;
57389;SDS011;43217;52.694;6.214;2024-02-21T01:37:27;20.98;;;9.25;;
57389;SDS011;43217;52.694;6.214;2024-02-21T01:39:55;17.55;;;8.70;;
57389;SDS011;43217;52.694;6.214;2024-02-21T01:42:23;20.10;;;8.57;;
57389;SDS011;43217;52.694;6.214;2024-02-21T01:44:49;19.52;;;8.38;;
57389;SDS011;43217;52.694;6.214;2024-02-21T01:47:14;17.88;;;7.97;;
57389;SDS011;43217;52.694;6.214;2024-02-21T01:49:40;18.85;;;8.00;;
57389;SDS011;43217;52.694;6.214;2024-02-21T01:52:06;18.65;;;7.65;;
57389;SDS011;43217;52.694;6.214;2024-02-21T01:54:33;20.60;;;7.90;;
57389;SDS011;43217;52.694;6.214;2024-02-21T01:56:58;24.95;;;7.95;;
57389;SDS011;43217;52.694;6.214;2024-02-21T01:59:24;18.17;;;8.00;;
57389;SDS011;43217;52.694;6.214;2024-02-21T02:01:51;22.83;;;9.13;;
57389;SDS011;43217;52.694;6.214;2024-02-21T02:04:17;24.25;;;9.57;;
57389;SDS011;43217;52.694;6.214;2024-02-21T02:06:45;21.85;;;9.80;;
57389;SDS011;43217;52.694;6.214;2024-02-21T02:09:11;24.98;;;10.25;;
57389;SDS011;43217;52.694;6.214;2024-02-21T02:11:36;25.70;;;9.68;;
57389;SDS011;43217;52.694;6.214;2024-02-21T02:14:02;28.52;;;11.45;;
57389;SDS011;43217;52.694;6.214;2024-02-21T02:16:28;25.38;;;10.40;;
57389;SDS011;43217;52.694;6.214;2024-02-21T02:18:53;27.63;;;10.65;;
57389;SDS011;43217;52.694;6.214;2024-02-21T02:21:41;23.35;;;10.35;;
57389;SDS011;43217;52.694;6.214;2024-02-21T02:24:08;30.08;;;11.63;;
57389;SDS011;43217;52.694;6.214;2024-02-21T02:26:33;24.85;;;9.43;;
57389;SDS011;43217;52.694;6.214;2024-02-21T02:29:01;26.75;;;9.68;;
57389;SDS011;43217;52.694;6.214;2024-02-21T02:31:27;33.17;;;10.52;;
57389;SDS011;43217;52.694;6.214;2024-02-21T02:33:52;23.23;;;9.00;;
57389;SDS011;43217;52.694;6.214;2024-02-21T02:36:18;23.15;;;9.18;;
57389;SDS011;43217;52.694;6.214;2024-02-21T02:38:44;26.35;;;8.90;;
57389;SDS011;43217;52.694;6.214;2024-02-21T02:41:10;20.77;;;7.93;;
57389;SDS011;43217;52.694;6.214;2024-02-21T02:43:35;22.67;;;8.30;;
57389;SDS011;43217;52.694;6.214;2024-02-21T02:46:02;23.83;;;8.43;;
57389;SDS011;43217;52.694;6.214;2024-02-21T02:48:28;25.55;;;8.25;;
57389;SDS011;43217;52.694;6.214;2024-02-21T02:50:54;22.70;;;8.57;;
57389;SDS011;43217;52.694;6.214;2024-02-21T02:53:20;34.67;;;9.38;;
57389;SDS011;43217;52.694;6.214;2024-02-21T02:55:45;23.10;;;8.48;;
57389;SDS011;43217;52.694;6.214;2024-02-21T02:58:11;25.33;;;8.13;;
57389;SDS011;43217;52.694;6.214;2024-02-21T03:00:37;20.02;;;8.20;;
57389;SDS011;43217;52.694;6.214;2024-02-21T03:03:04;28.80;;;7.93;;
57389;SDS011;43217;52.694;6.214;2024-02-21T03:05:30;23.52;;;8.77;;
57389;SDS011;43217;52.694;6.214;2024-02-21T03:07:55;29.17;;;8.30;;
57389;SDS011;43217;52.694;6.214;2024-02-21T03:10:21;24.17;;;8.02;;
57389;SDS011;43217;52.694;6.214;2024-02-21T03:12:47;26.77;;;8.80;;
57389;SDS011;43217;52.694;6.214;2024-02-21T03:15:12;23.13;;;8.07;;
57389;SDS011;43217;52.694;6.214;2024-02-21T03:17:38;26.90;;;8.30;;
57389;SDS011;43217;52.694;6.214;2024-02-21T03:20:05;22.85;;;7.93;;
57389;SDS011;43217;52.694;6.214;2024-02-21T03:22:34;26.63;;;8.60;;
57389;SDS011;43217;52.694;6.214;2024-02-21T03:24:59;19.42;;;7.93;;
57389;SDS011;43217;52.694;6.214;2024-02-21T03:27:25;22.08;;;8.10;;
57389;SDS011;43217;52.694;6.214;2024-02-21T03:29:50;28.27;;;9.50;;
57389;SDS011;43217;52.694;6.214;2024-02-21T03:32:16;20.65;;;8.85;;
57389;SDS011;43217;52.694;6.214;2024-02-21T03:34:42;25.58;;;8.45;;
57389;SDS011;43217;52.694;6.214;2024-02-21T03:37:07;26.38;;;8.55;;
57389;SDS011;43217;52.694;6.214;2024-02-21T03:39:33;22.23;;;8.32;;
57389;SDS011;43217;52.694;6.214;2024-02-21T03:41:58;26.60;;;8.38;;
57389;SDS011;43217;52.694;6.214;2024-02-21T03:44:30;22.45;;;8.10;;
57389;SDS011;43217;52.694;6.214;2024-02-21T03:46:56;23.48;;;9.13;;
57389;SDS011;43217;52.694;6.214;2024-02-21T03:49:22;25.33;;;8.18;;
57389;SDS011;43217;52.694;6.214;2024-02-21T03:51:47;22.73;;;8.40;;
57389;SDS011;43217;52.694;6.214;2024-02-21T03:54:13;20.08;;;7.60;;
57389;SDS011;43217;52.694;6.214;2024-02-21T03:56:39;24.10;;;8.98;;
57389;SDS011;43217;52.694;6.214;2024-02-21T03:59:07;20.73;;;8.50;;
57389;SDS011;43217;52.694;6.214;2024-02-21T04:01:33;25.38;;;8.52;;
57389;SDS011;43217;52.694;6.214;2024-02-21T04:03:59;28.95;;;8.50;;
57389;SDS011;43217;52.694;6.214;2024-02-21T04:06:25;22.30;;;8.75;;
57389;SDS011;43217;52.694;6.214;2024-02-21T04:08:51;21.67;;;8.68;;
57389;SDS011;43217;52.694;6.214;2024-02-21T04:11:16;24.10;;;8.38;;
57389;SDS011;43217;52.694;6.214;2024-02-21T04:13:43;23.80;;;8.32;;
57389;SDS011;43217;52.694;6.214;2024-02-21T04:16:10;25.70;;;9.20;;
57389;SDS011;43217;52.694;6.214;2024-02-21T04:18:35;25.63;;;8.70;;
57389;SDS011;43217;52.694;6.214;2024-02-21T04:21:01;25.45;;;9.07;;
57389;SDS011;43217;52.694;6.214;2024-02-21T04:23:27;21.88;;;8.65;;
57389;SDS011;43217;52.694;6.214;2024-02-21T04:25:52;25.73;;;8.80;;
57389;SDS011;43217;52.694;6.214;2024-02-21T04:28:18;26.00;;;9.48;;
57389;SDS011;43217;52.694;6.214;2024-02-21T04:30:43;19.90;;;8.40;;
57389;SDS011;43217;52.694;6.214;2024-02-21T04:33:09;22.83;;;9.05;;
57389;SDS011;43217;52.694;6.214;2024-02-21T04:35:38;25.38;;;9.15;;
57389;SDS011;43217;52.694;6.214;2024-02-21T04:38:04;28.83;;;9.15;;
57389;SDS011;43217;52.694;6.214;2024-02-21T04:40:30;30.83;;;10.57;;
57389;SDS011;43217;52.694;6.214;2024-02-21T04:42:56;22.48;;;9.13;;
57389;SDS011;43217;52.694;6.214;2024-02-21T04:45:22;32.80;;;9.73;;
57389;SDS011;43217;52.694;6.214;2024-02-21T04:47:48;20.67;;;8.15;;
57389;SDS011;43217;52.694;6.214;2024-02-21T04:50:13;29.75;;;9.32;;
57389;SDS011;43217;52.694;6.214;2024-02-21T04:52:39;21.90;;;9.32;;
57389;SDS011;43217;52.694;6.214;2024-02-21T04:55:05;22.52;;;8.40;;
57389;SDS011;43217;52.694;6.214;2024-02-21T04:57:31;25.92;;;9.52;;
57389;SDS011;43217;52.694;6.214;2024-02-21T04:59:56;21.60;;;9.07;;
57389;SDS011;43217;52.694;6.214;2024-02-21T05:02:22;22.58;;;9.23;;
57389;SDS011;43217;52.694;6.214;2024-02-21T05:04:49;26.13;;;9.63;;
57389;SDS011;43217;52.694;6.214;2024-02-21T05:07:15;22.42;;;9.57;;
57389;SDS011;43217;52.694;6.214;2024-02-21T05:09:44;19.75;;;9.43;;
57389;SDS011;43217;52.694;6.214;2024-02-21T05:12:10;28.88;;;9.35;;
57389;SDS011;43217;52.694;6.214;2024-02-21T05:14:35;25.05;;;8.73;;
57389;SDS011;43217;52.694;6.214;2024-02-21T05:17:01;22.65;;;9.43;;
57389;SDS011;43217;52.694;6.214;2024-02-21T05:19:26;31.02;;;9.52;;
57389;SDS011;43217;52.694;6.214;2024-02-21T05:21:52;20.35;;;8.77;;
57389;SDS011;43217;52.694;6.214;2024-02-21T05:24:17;23.10;;;9.13;;
57389;SDS011;43217;52.694;6.214;2024-02-21T05:26:43;21.63;;;9.23;;
57389;SDS011;43217;52.694;6.214;2024-02-21T05:29:09;21.95;;;9.55;;
57389;SDS011;43217;52.694;6.214;2024-02-21T05:34:18;21.42;;;9.02;;
57389;SDS011;43217;52.694;6.214;2024-02-21T05:36:45;23.17;;;9.93;;
57389;SDS011;43217;52.694;6.214;2024-02-21T05:39:11;21.58;;;8.60;;
57389;SDS011;43217;52.694;6.214;2024-02-21T05:41:37;26.55;;;9.48;;
57389;SDS011;43217;52.694;6.214;2024-02-21T05:44:03;25.00;;;9.43;;
57389;SDS011;43217;52.694;6.214;2024-02-21T05:46:31;25.58;;;8.85;;
57389;SDS011;43217;52.694;6.214;2024-02-21T05:48:57;23.65;;;9.85;;
57389;SDS011;43217;52.694;6.214;2024-02-21T05:51:23;29.20;;;10.13;;
57389;SDS011;43217;52.694;6.214;2024-02-21T05:53:48;30.25;;;10.65;;
57389;SDS011;43217;52.694;6.214;2024-02-21T05:56:14;26.52;;;10.90;;
57389;SDS011;43217;52.694;6.214;2024-02-21T05:58:40;21.85;;;10.32;;
57389;SDS011;43217;52.694;6.214;2024-02-21T06:01:06;23.67;;;11.30;;
57389;SDS011;43217;52.694;6.214;2024-02-21T06:03:32;25.60;;;12.55;;
57389;SDS011;43217;52.694;6.214;2024-02-21T06:05:59;21.20;;;11.90;;
57389;SDS011;43217;52.694;6.214;2024-02-21T06:08:28;24.92;;;12.23;;
57389;SDS011;43217;52.694;6.214;2024-02-21T06:10:53;28.60;;;13.82;;
57389;SDS011;43217;52.694;6.214;2024-02-21T06:13:28;25.17;;;13.15;;
57389;SDS011;43217;52.694;6.214;2024-02-21T06:15:54;26.35;;;13.60;;
57389;SDS011;43217;52.694;6.214;2024-02-21T06:18:20;27.45;;;15.02;;
57389;SDS011;43217;52.694;6.214;2024-02-21T06:20:46;21.73;;;13.55;;
57389;SDS011;43217;52.694;6.214;2024-02-21T06:23:15;24.17;;;14.23;;
57389;SDS011;43217;52.694;6.214;2024-02-21T06:25:42;26.77;;;14.63;;
57389;SDS011;43217;52.694;6.214;2024-02-21T06:28:07;25.65;;;14.85;;
57389;SDS011;43217;52.694;6.214;2024-02-21T06:30:33;27.85;;;14.43;;
57389;SDS011;43217;52.694;6.214;2024-02-21T06:32:59;27.50;;;14.90;;
57389;SDS011;43217;52.694;6.214;2024-02-21T06:35:24;24.83;;;14.93;;
57389;SDS011;43217;52.694;6.214;2024-02-21T06:37:51;24.23;;;15.02;;
57389;SDS011;43217;52.694;6.214;2024-02-21T06:40:17;26.45;;;15.40;;
57389;SDS011;43217;52.694;6.214;2024-02-21T06:45:10;27.60;;;16.05;;
57389;SDS011;43217;52.694;6.214;2024-02-21T06:47:35;27.65;;;16.75;;
57389;SDS011;43217;52.694;6.214;2024-02-21T06:50:01;23.67;;;16.55;;
57389;SDS011;43217;52.694;6.214;2024-02-21T06:52:27;30.92;;;16.17;;
57389;SDS011;43217;52.694;6.214;2024-02-21T06:54:53;23.92;;;16.02;;
57389;SDS011;43217;52.694;6.214;2024-02-21T06:57:18;28.25;;;16.63;;
57389;SDS011;43217;52.694;6.214;2024-02-21T06:59:44;29.23;;;17.67;;
57389;SDS011;43217;52.694;6.214;2024-02-21T07:02:10;27.98;;;17.10;;
57389;SDS011;43217;52.694;6.214;2024-02-21T07:04:35;26.67;;;16.20;;
57389;SDS011;43217;52.694;6.214;2024-02-21T07:07:01;30.35;;;16.80;;
57389;SDS011;43217;52.694;6.214;2024-02-21T07:09:27;24.42;;;15.82;;
57389;SDS011;43217;52.694;6.214;2024-02-21T07:11:53;24.67;;;15.40;;
57389;SDS011;43217;52.694;6.214;2024-02-21T07:14:19;25.02;;;16.52;;
57389;SDS011;43217;52.694;6.214;2024-02-21T07:16:45;24.10;;;16.48;;
57389;SDS011;43217;52.694;6.214;2024-02-21T07:19:10;27.25;;;16.13;;
57389;SDS011;43217;52.694;6.214;2024-02-21T07:21:36;23.33;;;16.27;;
57389;SDS011;43217;52.694;6.214;2024-02-21T07:24:06;24.48;;;16.30;;
57389;SDS011;43217;52.694;6.214;2024-02-21T07:26:32;24.70;;;15.05;;
57389;SDS011;43217;52.694;6.214;2024-02-21T07:28:58;23.63;;;15.30;;
57389;SDS011;43217;52.694;6.214;2024-02-21T07:31:24;21.95;;;15.73;;
57389;SDS011;43217;52.694;6.214;2024-02-21T07:33:49;22.60;;;16.40;;
57389;SDS011;43217;52.694;6.214;2024-02-21T07:36:15;24.25;;;16.40;;
57389;SDS011;43217;52.694;6.214;2024-02-21T07:38:49;21.45;;;16.40;;
57389;SDS011;43217;52.694;6.214;2024-02-21T07:41:15;24.05;;;16.35;;
57389;SDS011;43217;52.694;6.214;2024-02-21T07:43:41;21.52;;;14.77;;
57389;SDS011;43217;52.694;6.214;2024-02-21T07:46:06;20.83;;;15.50;;
57389;SDS011;43217;52.694;6.214;2024-02-21T07:48:32;22.33;;;15.27;;
57389;SDS011;43217;52.694;6.214;2024-02-21T07:50:58;27.77;;;20.58;;
57389;SDS011;43217;52.694;6.214;2024-02-21T07:53:23;23.20;;;16.17;;
57389;SDS011;43217;52.694;6.214;2024-02-21T07:55:49;23.20;;;17.55;;
57389;SDS011;43217;52.694;6.214;2024-02-21T07:58:14;23.88;;;17.55;;
57389;SDS011;43217;52.694;6.214;2024-02-21T08:00:40;24.10;;;18.55;;
57389;SDS011;43217;52.694;6.214;2024-02-21T08:03:05;24.42;;;18.10;;
57389;SDS011;43217;52.694;6.214;2024-02-21T08:05:33;23.98;;;18.27;;
57389;SDS011;43217;52.694;6.214;2024-02-21T08:07:59;23.13;;;18.25;;
57389;SDS011;43217;52.694;6.214;2024-02-21T08:10:25;26.45;;;19.35;;
57389;SDS011;43217;52.694;6.214;2024-02-21T08:12:50;25.73;;;19.13;;
57389;SDS011;43217;52.694;6.214;2024-02-21T08:15:16;23.98;;;19.50;;
57389;SDS011;43217;52.694;6.214;2024-02-21T08:17:42;27.55;;;18.73;;
57389;SDS011;43217;52.694;6.214;2024-02-21T08:20:08;26.48;;;19.83;;
57389;SDS011;43217;52.694;6.214;2024-02-21T08:22:36;24.58;;;19.05;;
57389;SDS011;43217;52.694;6.214;2024-02-21T08:25:02;22.85;;;19.40;;
57389;SDS011;43217;52.694;6.214;2024-02-21T08:29:56;28.13;;;20.52;;
57389;SDS011;43217;52.694;6.214;2024-02-21T08:32:21;27.95;;;21.25;;
57389;SDS011;43217;52.694;6.214;2024-02-21T08:34:47;27.35;;;20.83;;
57389;SDS011;43217;52.694;6.214;2024-02-21T08:37:12;30.40;;;21.63;;
57389;SDS011;43217;52.694;6.214;2024-02-21T08:39:38;28.88;;;21.92;;
57389;SDS011;43217;52.694;6.214;2024-02-21T08:42:04;28.48;;;21.60;;
57389;SDS011;43217;52.694;6.214;2024-02-21T08:44:30;29.70;;;22.83;;
57389;SDS011;43217;52.694;6.214;2024-02-21T08:46:56;29.40;;;22.15;;
57389;SDS011;43217;52.694;6.214;2024-02-21T08:49:21;30.10;;;23.92;;
57389;SDS011;43217;52.694;6.214;2024-02-21T08:51:47;30.90;;;22.80;;
57389;SDS011;43217;52.694;6.214;2024-02-21T08:54:13;29.23;;;23.80;;
57389;SDS011;43217;52.694;6.214;2024-02-21T08:56:38;29.80;;;23.75;;
57389;SDS011;43217;52.694;6.214;2024-02-21T08:59:04;30.85;;;23.88;;
57389;SDS011;43217;52.694;6.214;2024-02-21T09:01:29;28.90;;;23.40;;
57389;SDS011;43217;52.694;6.214;2024-02-21T09:03:55;28.55;;;23.42;;
57389;SDS011;43217;52.694;6.214;2024-02-21T09:06:21;28.58;;;24.35;;
57389;SDS011;43217;52.694;6.214;2024-02-21T09:08:47;30.13;;;22.88;;
57389;SDS011;43217;52.694;6.214;2024-02-21T09:11:14;29.98;;;24.00;;
57389;SDS011;43217;52.694;6.214;2024-02-21T09:13:40;29.73;;;23.67;;
57389;SDS011;43217;52.694;6.214;2024-02-21T09:16:05;28.30;;;23.27;;
57389;SDS011;43217;52.694;6.214;2024-02-21T09:18:31;31.17;;;24.45;;
57389;SDS011;43217;52.694;6.214;2024-02-21T09:20:57;32.03;;;23.92;;
57389;SDS011;43217;52.694;6.214;2024-02-21T09:23:25;29.10;;;24.48;;
57389;SDS011;43217;52.694;6.214;2024-02-21T09:25:51;29.15;;;23.73;;
57389;SDS011;43217;52.694;6.214;2024-02-21T09:28:17;31.40;;;23.10;;
57389;SDS011;43217;52.694;6.214;2024-02-21T09:30:43;30.55;;;22.65;;
57389;SDS011;43217;52.694;6.214;2024-02-21T09:33:09;26.27;;;21.45;;
57389;SDS011;43217;52.694;6.214;2024-02-21T09:35:34;29.52;;;23.33;;
57389;SDS011;43217;52.694;6.214;2024-02-21T09:38:01;28.25;;;21.70;;
57389;SDS011;43217;52.694;6.214;2024-02-21T09:40:27;27.85;;;20.20;;
57389;SDS011;43217;52.694;6.214;2024-02-21T09:43:02;29.73;;;22.60;;
57389;SDS011;43217;52.694;6.214;2024-02-21T09:45:32;27.50;;;21.58;;
57389;SDS011;43217;52.694;6.214;2024-02-21T09:48:19;29.05;;;21.30;;
57389;SDS011;43217;52.694;6.214;2024-02-21T09:50:59;25.05;;;19.20;;
57389;SDS011;43217;52.694;6.214;2024-02-21T09:53:27;29.58;;;19.60;;
57389;SDS011;43217;52.694;6.214;2024-02-21T09:55:53;27.10;;;19.85;;
57389;SDS011;43217;52.694;6.214;2024-02-21T09:58:19;22.77;;;18.02;;
57389;SDS011;43217;52.694;6.214;2024-02-21T10:00:46;26.30;;;19.00;;
57389;SDS011;43217;52.694;6.214;2024-02-21T10:03:12;26.13;;;20.35;;
57389;SDS011;43217;52.694;6.214;2024-02-21T10:05:38;23.85;;;18.02;;
57389;SDS011;43217;52.694;6.214;2024-02-21T10:08:13;20.80;;;17.98;;
57389;SDS011;43217;52.694;6.214;2024-02-21T10:10:43;25.73;;;16.70;;
57389;SDS011;43217;52.694;6.214;2024-02-21T10:13:10;41.25;;;22.38;;
57389;SDS011;43217;52.694;6.214;2024-02-21T10:15:46;23.65;;;15.70;;
57389;SDS011;43217;52.694;6.214;2024-02-21T10:18:15;21.55;;;17.17;;
57389;SDS011;43217;52.694;6.214;2024-02-21T10:20:43;20.65;;;16.90;;
57389;SDS011;43217;52.694;6.214;2024-02-21T10:23:09;18.27;;;15.32;;
57389;SDS011;43217;52.694;6.214;2024-02-21T10:25:35;19.63;;;15.65;;
57389;SDS011;43217;52.694;6.214;2024-02-21T10:28:03;20.75;;;15.25;;
57389;SDS011;43217;52.694;6.214;2024-02-21T10:30:29;18.65;;;15.02;;
57389;SDS011;43217;52.694;6.214;2024-02-21T10:32:55;21.23;;;15.05;;
57389;SDS011;43217;52.694;6.214;2024-02-21T10:35:27;23.42;;;14.90;;
57389;SDS011;43217;52.694;6.214;2024-02-21T10:37:57;16.73;;;14.38;;
57389;SDS011;43217;52.694;6.214;2024-02-21T10:40:24;17.42;;;14.38;;
57389;SDS011;43217;52.694;6.214;2024-02-21T10:42:56;17.20;;;13.30;;
57389;SDS011;43217;52.694;6.214;2024-02-21T10:45:30;21.35;;;14.27;;
57389;SDS011;43217;52.694;6.214;2024-02-21T10:48:01;15.25;;;13.35;;
57389;SDS011;43217;52.694;6.214;2024-02-21T10:50:32;13.98;;;12.48;;
57389;SDS011;43217;52.694;6.214;2024-02-21T10:55:56;15.32;;;12.52;;
57389;SDS011;43217;52.694;6.214;2024-02-21T10:58:25;17.92;;;13.23;;
57389;SDS011;43217;52.694;6.214;2024-02-21T11:00:53;17.00;;;12.88;;
57389;SDS011;43217;52.694;6.214;2024-02-21T11:03:19;18.77;;;14.13;;
57389;SDS011;43217;52.694;6.214;2024-02-21T11:05:45;15.90;;;12.48;;
57389;SDS011;43217;52.694;6.214;2024-02-21T11:08:11;15.52;;;12.57;;
57389;SDS011;43217;52.694;6.214;2024-02-21T11:10:37;16.33;;;12.88;;
57389;SDS011;43217;52.694;6.214;2024-02-21T11:13:09;14.27;;;11.90;;
57389;SDS011;43217;52.694;6.214;2024-02-21T11:15:35;20.05;;;11.77;;
57389;SDS011;43217;52.694;6.214;2024-02-21T11:18:00;16.70;;;12.30;;
57389;SDS011;43217;52.694;6.214;2024-02-21T11:20:36;15.02;;;11.23;;
57389;SDS011;43217;52.694;6.214;2024-02-21T11:23:03;14.27;;;11.27;;
57389;SDS011;43217;52.694;6.214;2024-02-21T11:25:28;15.07;;;10.98;;
57389;SDS011;43217;52.694;6.214;2024-02-21T11:27:59;15.07;;;11.13;;
57389;SDS011;43217;52.694;6.214;2024-02-21T11:30:31;15.07;;;11.85;;
57389;SDS011;43217;52.694;6.214;2024-02-21T11:33:05;13.70;;;11.07;;
57389;SDS011;43217;52.694;6.214;2024-02-21T11:35:32;15.23;;;11.13;;
57389;SDS011;43217;52.694;6.214;2024-02-21T11:38:11;12.45;;;10.80;;
57389;SDS011;43217;52.694;6.214;2024-02-21T11:40:41;13.27;;;11.13;;
57389;SDS011;43217;52.694;6.214;2024-02-21T11:43:09;13.15;;;11.07;;
57389;SDS011;43217;52.694;6.214;2024-02-21T11:45:35;15.23;;;10.30;;
57389;SDS011;43217;52.694;6.214;2024-02-21T11:48:01;13.95;;;10.00;;
57389;SDS011;43217;52.694;6.214;2024-02-21T11:50:29;12.75;;;10.20;;
57389;SDS011;43217;52.694;6.214;2024-02-21T11:52:55;12.05;;;10.05;;
57389;SDS011;43217;52.694;6.214;2024-02-21T11:55:24;13.65;;;10.55;;
57389;SDS011;43217;52.694;6.214;2024-02-21T11:57:50;12.80;;;10.43;;
57389;SDS011;43217;52.694;6.214;2024-02-21T12:00:19;13.88;;;9.40;;
57389;SDS011;43217;52.694;6.214;2024-02-21T12:02:46;11.45;;;9.70;;
57389;SDS011;43217;52.694;6.214;2024-02-21T12:05:11;11.57;;;8.80;;
57389;SDS011;43217;52.694;6.214;2024-02-21T12:07:38;10.68;;;9.07;;
57389;SDS011;43217;52.694;6.214;2024-02-21T12:10:10;12.52;;;9.90;;
57389;SDS011;43217;52.694;6.214;2024-02-21T12:12:36;12.75;;;8.60;;
57389;SDS011;43217;52.694;6.214;2024-02-21T12:15:03;9.88;;;8.88;;
57389;SDS011;43217;52.694;6.214;2024-02-21T12:17:30;9.60;;;8.60;;
57389;SDS011;43217;52.694;6.214;2024-02-21T12:20:00;10.55;;;8.80;;
57389;SDS011;43217;52.694;6.214;2024-02-21T12:22:29;9.88;;;8.85;;
57389;SDS011;43217;52.694;6.214;2024-02-21T12:24:57;12.02;;;8.50;;
57389;SDS011;43217;52.694;6.214;2024-02-21T12:27:23;10.40;;;8.35;;
57389;SDS011;43217;52.694;6.214;2024-02-21T12:29:50;8.80;;;8.00;;
57389;SDS011;43217;52.694;6.214;2024-02-21T12:32:15;8.98;;;8.07;;
57389;SDS011;43217;52.694;6.214;2024-02-21T12:34:41;8.38;;;7.57;;
57389;SDS011;43217;52.694;6.214;2024-02-21T12:37:06;8.02;;;7.13;;
57389;SDS011;43217;52.694;6.214;2024-02-21T12:39:32;8.05;;;7.28;;
57389;SDS011;43217;52.694;6.214;2024-02-21T12:41:58;7.30;;;6.38;;
57389;SDS011;43217;52.694;6.214;2024-02-21T12:44:23;7.45;;;6.75;;
57389;SDS011;43217;52.694;6.214;2024-02-21T12:46:49;7.57;;;6.30;;
57389;SDS011;43217;52.694;6.214;2024-02-21T12:49:19;6.65;;;5.95;;
57389;SDS011;43217;52.694;6.214;2024-02-21T12:51:44;7.82;;;7.05;;
57389;SDS011;43217;52.694;6.214;2024-02-21T12:54:13;6.30;;;5.70;;
57389;SDS011;43217;52.694;6.214;2024-02-21T12:56:39;6.57;;;5.97;;
57389;SDS011;43217;52.694;6.214;2024-02-21T12:59:07;7.47;;;6.80;;
57389;SDS011;43217;52.694;6.214;2024-02-21T13:01:34;6.57;;;5.90;;
57389;SDS011;43217;52.694;6.214;2024-02-21T13:04:00;7.50;;;6.80;;
57389;SDS011;43217;52.694;6.214;2024-02-21T13:06:26;9.13;;;7.22;;
57389;SDS011;43217;52.694;6.214;2024-02-21T13:08:52;8.05;;;7.35;;
57389;SDS011;43217;52.694;6.214;2024-02-21T13:11:18;8.88;;;8.00;;
57389;SDS011;43217;52.694;6.214;2024-02-21T13:13:44;8.65;;;7.85;;
57389;SDS011;43217;52.694;6.214;2024-02-21T13:16:10;9.10;;;8.23;;
57389;SDS011;43217;52.694;6.214;2024-02-21T13:18:35;9.27;;;7.68;;
57389;SDS011;43217;52.694;6.214;2024-02-21T13:21:03;8.55;;;7.75;;
57389;SDS011;43217;52.694;6.214;2024-02-21T13:23:29;11.07;;;8.57;;
57389;SDS011;43217;52.694;6.214;2024-02-21T13:25:55;11.32;;;8.48;;
57389;SDS011;43217;52.694;6.214;2024-02-21T13:28:21;10.02;;;7.95;;
57389;SDS011;43217;52.694;6.214;2024-02-21T13:30:46;9.85;;;8.27;;
57389;SDS011;43217;52.694;6.214;2024-02-21T13:33:12;9.30;;;8.15;;
57389;SDS011;43217;52.694;6.214;2024-02-21T13:35:38;10.50;;;8.77;;
57389;SDS011;43217;52.694;6.214;2024-02-21T13:38:04;9.63;;;8.38;;
57389;SDS011;43217;52.694;6.214;2024-02-21T13:40:30;8.27;;;7.32;;
57389;SDS011;43217;52.694;6.214;2024-02-21T13:42:55;8.88;;;7.80;;
57389;SDS011;43217;52.694;6.214;2024-02-21T13:45:21;10.50;;;8.10;;
57389;SDS011;43217;52.694;6.214;2024-02-21T13:47:47;8.88;;;7.78;;
57389;SDS011;43217;52.694;6.214;2024-02-21T13:50:13;11.70;;;8.45;;
57389;SDS011;43217;52.694;6.214;2024-02-21T13:52:39;10.27;;;8.20;;
57389;SDS011;43217;52.694;6.214;2024-02-21T13:55:05;12.13;;;8.98;;
57389;SDS011;43217;52.694;6.214;2024-02-21T13:57:33;11.38;;;8.68;;
57389;SDS011;43217;52.694;6.214;2024-02-21T14:00:00;10.10;;;8.30;;
57389;SDS011;43217;52.694;6.214;2024-02-21T14:02:25;9.38;;;8.30;;
57389;SDS011;43217;52.694;6.214;2024-02-21T14:04:51;11.45;;;8.00;;
57389;SDS011;43217;52.694;6.214;2024-02-21T14:07:16;9.52;;;8.07;;
57389;SDS011;43217;52.694;6.214;2024-02-21T14:09:42;10.88;;;7.82;;
57389;SDS011;43217;52.694;6.214;2024-02-21T14:12:08;10.85;;;8.05;;
57389;SDS011;43217;52.694;6.214;2024-02-21T14:14:34;10.93;;;8.52;;
57389;SDS011;43217;52.694;6.214;2024-02-21T14:17:01;10.70;;;8.45;;
57389;SDS011;43217;52.694;6.214;2024-02-21T14:19:28;12.32;;;8.35;;
57389;SDS011;43217;52.694;6.214;2024-02-21T14:21:54;11.55;;;8.27;;
57389;SDS011;43217;52.694;6.214;2024-02-21T14:24:19;9.57;;;8.50;;
57389;SDS011;43217;52.694;6.214;2024-02-21T14:26:45;9.45;;;8.13;;
57389;SDS011;43217;52.694;6.214;2024-02-21T14:29:11;11.23;;;8.32;;
57389;SDS011;43217;52.694;6.214;2024-02-21T14:31:37;11.27;;;8.83;;
57389;SDS011;43217;52.694;6.214;2024-02-21T14:34:03;11.13;;;9.32;;
57389;SDS011;43217;52.694;6.214;2024-02-21T14:36:29;9.43;;;8.43;;